createdAt,value
2023-03-26T00:02:06.525Z,5.20
2023-03-26T00:04:34.736Z,4.53
2023-03-26T00:07:02.084Z,5.28
2023-03-26T00:09:30.193Z,5.30
2023-03-26T00:11:57.641Z,4.50
2023-03-26T00:14:27.221Z,4.65
2023-03-26T00:16:54.425Z,5.10
2023-03-26T00:19:22.834Z,5.43
2023-03-26T00:21:51.869Z,5.40
2023-03-26T00:24:19.251Z,5.20
2023-03-26T00:26:53.635Z,5.45
2023-03-26T00:29:28.242Z,5.15
2023-03-26T00:31:55.402Z,5.38
2023-03-26T00:34:23.217Z,5.10
2023-03-26T00:39:24.255Z,4.78
2023-03-26T00:41:54.892Z,5.20
2023-03-26T00:44:23.306Z,4.32
2023-03-26T00:46:50.763Z,4.80
2023-03-26T00:49:26.891Z,4.68
2023-03-26T00:51:55.255Z,4.40
2023-03-26T00:54:22.849Z,4.10
2023-03-26T00:56:50.478Z,4.22
2023-03-26T00:59:17.931Z,3.75
2023-03-26T01:01:45.292Z,3.90
2023-03-26T01:04:38.665Z,3.90
2023-03-26T01:07:22.057Z,3.60
2023-03-26T01:09:51.621Z,3.45
2023-03-26T01:12:29.029Z,3.67
2023-03-26T01:15:00.952Z,3.60
2023-03-26T01:17:34.524Z,3.53
2023-03-26T01:25:16.435Z,3.42
2023-03-26T01:27:50.415Z,3.55
2023-03-26T01:30:38.868Z,3.50
2023-03-26T01:33:36.884Z,3.90
2023-03-26T01:36:19.685Z,3.40
2023-03-26T01:38:47.089Z,3.08
2023-03-26T01:41:42.031Z,3.65
2023-03-26T01:44:34.858Z,2.80
2023-03-26T01:47:02.250Z,2.72
2023-03-26T01:49:31.615Z,2.50
2023-03-26T01:51:59.316Z,2.85
2023-03-26T01:54:31.763Z,3.00
2023-03-26T01:57:18.999Z,2.85
2023-03-26T01:59:53.958Z,2.40
2023-03-26T02:02:36.073Z,3.00
2023-03-26T02:05:21.780Z,2.50
2023-03-26T02:07:52.376Z,2.45
2023-03-26T02:10:29.836Z,2.55
2023-03-26T05:17:19.126Z,2.45
2023-03-26T05:19:47.336Z,2.63
2023-03-26T05:22:14.985Z,2.92
2023-03-26T05:24:42.372Z,2.22
2023-03-26T05:27:15.255Z,3.00
2023-03-26T05:29:43.658Z,2.20
2023-03-26T05:32:11.965Z,2.20
2023-03-26T05:34:41.028Z,2.38
2023-03-26T05:37:11.500Z,2.50
2023-03-26T05:39:39.014Z,2.42
2023-03-26T05:42:08.056Z,2.35
2023-03-26T05:44:35.619Z,2.72
2023-03-26T05:47:04.159Z,2.40
2023-03-26T05:49:31.660Z,2.45
2023-03-26T05:52:00.205Z,2.33
2023-03-26T05:54:27.600Z,2.25
2023-03-26T05:56:57.502Z,3.08
2023-03-26T06:01:54.805Z,2.30
2023-03-26T06:04:23.196Z,2.83
2023-03-26T06:06:53.026Z,2.47
2023-03-26T06:09:20.821Z,2.60
2023-03-26T06:11:48.010Z,2.22
2023-03-26T06:14:17.269Z,2.15
2023-03-26T06:16:44.594Z,2.38
2023-03-26T06:19:12.086Z,2.50
2023-03-26T06:21:39.479Z,2.47
2023-03-26T06:24:09.023Z,2.25
2023-03-26T06:26:36.625Z,2.50
2023-03-26T06:29:04.032Z,1.90
2023-03-26T06:31:31.324Z,2.65
2023-03-26T06:33:58.799Z,1.92
2023-03-26T06:36:26.422Z,2.15
2023-03-26T06:38:54.992Z,1.70
2023-03-26T06:41:23.192Z,1.60
2023-03-26T06:43:50.953Z,1.88
2023-03-26T06:46:18.982Z,1.58
2023-03-26T06:48:48.713Z,1.60
2023-03-26T06:51:16.171Z,1.40
2023-03-26T06:53:44.684Z,1.42
2023-03-26T06:56:14.248Z,1.45
2023-03-26T06:58:43.614Z,1.80
2023-03-26T07:01:11.179Z,1.58
2023-03-26T07:03:38.607Z,1.52
2023-03-26T07:06:07.323Z,1.58
2023-03-26T07:08:40.828Z,1.70
2023-03-26T07:11:09.176Z,1.73
2023-03-26T07:13:37.963Z,1.60
2023-03-26T07:16:08.193Z,1.52
2023-03-26T07:18:35.695Z,1.80
2023-03-26T07:21:04.410Z,1.60
2023-03-26T07:23:33.173Z,1.58
2023-03-26T07:26:02.465Z,1.67
2023-03-26T07:28:42.520Z,1.70
2023-03-26T07:32:09.583Z,2.13
2023-03-26T07:35:05.626Z,1.60
2023-03-26T07:38:03.676Z,1.50
2023-03-26T07:40:52.837Z,1.63
2023-03-26T07:43:34.412Z,1.88
2023-03-26T07:46:02.979Z,1.73
2023-03-26T07:48:42.616Z,1.40
2023-03-26T07:51:12.180Z,1.40
2023-03-26T07:53:39.770Z,1.65
2023-03-26T07:56:17.379Z,1.60
2023-03-26T07:59:00.110Z,1.60
2023-03-26T08:01:40.640Z,2.13
2023-03-26T08:04:23.703Z,1.70
2023-03-26T08:07:30.164Z,2.20
2023-03-26T08:10:17.472Z,1.80
2023-03-26T08:12:53.873Z,1.45
2023-03-26T08:15:42.257Z,1.98
2023-03-26T08:18:28.138Z,1.83
2023-03-26T08:21:09.014Z,1.65
2023-03-26T08:23:50.718Z,2.00
2023-03-26T08:26:57.780Z,1.23
2023-03-26T08:29:41.605Z,1.10
2023-03-26T08:32:17.471Z,2.53
2023-03-26T08:34:45.828Z,1.45
2023-03-26T08:37:13.129Z,1.45
2023-03-26T08:39:46.418Z,1.35
2023-03-26T08:42:24.873Z,1.38
2023-03-26T08:45:10.828Z,1.40
2023-03-26T08:48:02.133Z,1.92
2023-03-26T08:50:51.295Z,1.20
2023-03-26T08:53:42.877Z,1.20
2023-03-26T08:56:21.231Z,1.40
2023-03-26T08:59:09.649Z,1.13
2023-03-26T09:02:12.689Z,1.80
2023-03-26T09:04:58.866Z,1.40
2023-03-26T09:07:47.506Z,1.02
2023-03-26T09:10:47.009Z,1.60
2023-03-26T09:13:38.352Z,1.40
2023-03-26T09:16:31.762Z,1.50
2023-03-26T09:19:35.940Z,1.33
2023-03-26T09:22:32.678Z,1.20
2023-03-26T09:25:14.221Z,1.35
2023-03-26T09:27:47.252Z,1.23
2023-03-26T09:30:29.194Z,1.20
2023-03-26T09:33:36.250Z,1.35
2023-03-26T09:36:18.923Z,1.08
2023-03-26T09:38:54.841Z,1.25
2023-03-26T09:41:37.102Z,1.70
2023-03-26T09:44:04.309Z,1.20
2023-03-26T09:47:00.671Z,1.40
2023-03-26T09:49:46.093Z,1.38
2023-03-26T09:52:50.989Z,1.90
2023-03-26T09:55:26.049Z,1.70
2023-03-26T09:58:21.828Z,1.00
2023-03-26T10:01:11.325Z,0.93
2023-03-26T10:04:00.000Z,1.30
2023-03-26T10:06:42.861Z,1.10
2023-03-26T10:09:40.234Z,0.90
2023-03-26T10:12:10.640Z,1.27
2023-03-26T10:14:50.349Z,1.20
2023-03-26T10:17:37.176Z,0.90
2023-03-26T10:20:52.204Z,1.35
2023-03-26T10:23:43.194Z,1.00
2023-03-26T10:26:22.049Z,1.50
2023-03-26T10:29:16.554Z,1.27
2023-03-26T10:32:07.345Z,1.45
2023-03-26T10:35:14.314Z,1.42
2023-03-26T10:38:06.907Z,1.80
2023-03-26T10:40:48.764Z,3.50
2023-03-26T10:43:46.419Z,1.75
2023-03-26T10:46:22.480Z,1.40
2023-03-26T10:49:01.266Z,1.38
2023-03-26T10:51:43.877Z,1.60
2023-03-26T10:54:38.387Z,1.40
2023-03-26T10:57:41.655Z,1.13
2023-03-26T11:00:29.478Z,1.48
2023-03-26T11:03:44.241Z,1.40
2023-03-26T11:06:39.704Z,1.67
2023-03-26T11:09:19.457Z,1.25
2023-03-26T11:12:26.570Z,1.90
2023-03-26T11:15:09.090Z,1.52
2023-03-26T11:17:55.141Z,1.90
2023-03-26T11:20:56.382Z,1.83
2023-03-26T11:24:25.127Z,1.70
2023-03-26T11:27:15.657Z,1.40
2023-03-26T11:30:10.347Z,1.98
2023-03-26T11:32:48.694Z,2.10
2023-03-26T11:35:39.370Z,1.80
2023-03-26T11:38:23.878Z,1.33
2023-03-26T11:40:56.060Z,1.20
2023-03-26T11:43:35.628Z,1.67
2023-03-26T11:46:10.588Z,1.60
2023-03-26T11:48:46.018Z,2.03
2023-03-26T11:51:27.786Z,1.90
2023-03-26T11:53:58.087Z,2.00
2023-03-26T11:56:35.412Z,1.77
2023-03-26T11:59:11.830Z,1.50
2023-03-26T12:02:05.071Z,1.40
2023-03-26T12:04:41.475Z,1.35
2023-03-26T12:07:23.798Z,1.50
2023-03-26T12:09:53.987Z,1.20
2023-03-26T12:12:25.284Z,1.10
2023-03-26T12:14:53.518Z,1.40
2023-03-26T12:17:36.139Z,1.10
2023-03-26T12:20:50.765Z,1.13
2023-03-26T12:23:42.465Z,0.93
2023-03-26T12:26:28.020Z,1.13
2023-03-26T12:28:58.545Z,1.00
2023-03-26T12:31:30.773Z,1.15
2023-03-26T12:34:14.390Z,0.98
2023-03-26T12:37:01.287Z,0.80
2023-03-26T12:40:07.642Z,1.02
2023-03-26T12:44:46.778Z,0.85
2023-03-26T12:45:28.922Z,2.03
2023-03-26T12:48:04.052Z,1.50
2023-03-26T12:50:59.583Z,1.33
2023-03-26T12:53:59.443Z,1.10
2023-03-26T12:56:42.193Z,1.08
2023-03-26T12:59:23.134Z,4.13
2023-03-26T13:02:16.307Z,2.22
2023-03-26T13:05:07.893Z,1.42
2023-03-26T13:08:12.896Z,3.45
2023-03-26T13:11:02.044Z,1.50
2023-03-26T13:13:47.301Z,1.50
2023-03-26T13:16:23.176Z,1.60
2023-03-26T13:19:01.846Z,1.40
2023-03-26T13:22:12.915Z,1.80
2023-03-26T13:25:22.358Z,1.88
2023-03-26T13:28:05.134Z,1.50
2023-03-26T13:30:42.200Z,1.55
2023-03-26T13:33:26.033Z,3.50
2023-03-26T13:36:21.839Z,2.13
2023-03-26T13:39:03.882Z,1.88
2023-03-26T13:41:51.947Z,2.50
2023-03-26T13:44:39.266Z,2.05
2023-03-26T13:47:25.896Z,1.60
2023-03-26T13:50:22.008Z,1.98
2023-03-26T13:53:02.358Z,1.73
2023-03-26T13:55:41.682Z,5.43
2023-03-26T13:58:24.696Z,1.70
2023-03-26T14:01:09.814Z,3.03
2023-03-26T14:03:50.232Z,1.63
2023-03-26T14:06:23.825Z,3.33
2023-03-26T14:08:57.971Z,1.73
2023-03-26T14:11:45.103Z,1.60
2023-03-26T14:15:11.863Z,2.50
2023-03-26T14:17:59.043Z,2.08
2023-03-26T14:20:40.940Z,1.80
2023-03-26T14:23:36.043Z,4.97
2023-03-26T14:26:43.947Z,4.50
2023-03-26T14:29:57.030Z,4.05
2023-03-26T14:32:46.123Z,1.80
2023-03-26T14:35:39.598Z,3.28
2023-03-26T14:38:33.202Z,1.95
2023-03-26T14:41:09.149Z,5.97
2023-03-26T14:43:53.287Z,4.57
2023-03-26T14:46:59.978Z,9.90
2023-03-26T14:49:37.146Z,12.30
2023-03-26T14:52:04.607Z,1.60
2023-03-26T14:54:44.674Z,3.40
2023-03-26T14:57:30.294Z,3.60
2023-03-26T15:00:17.938Z,1.67
2023-03-26T15:03:01.310Z,2.63
2023-03-26T15:05:59.847Z,2.20
2023-03-26T15:09:09.878Z,2.67
2023-03-26T15:12:12.255Z,2.28
2023-03-26T15:15:01.697Z,14.65
2023-03-26T15:17:50.823Z,4.85
2023-03-26T15:20:43.114Z,1.63
2023-03-26T15:23:47.927Z,4.03
2023-03-26T15:26:48.918Z,1.30
2023-03-26T15:29:34.651Z,1.55
2023-03-26T15:32:33.733Z,1.70
2023-03-26T15:35:10.013Z,2.05
2023-03-26T15:38:21.184Z,1.40
2023-03-26T15:40:58.116Z,1.67
2023-03-26T15:44:23.061Z,1.48
2023-03-26T15:46:59.361Z,1.80
2023-03-26T15:49:41.454Z,1.70
2023-03-26T15:52:20.007Z,1.48
2023-03-26T15:55:01.663Z,1.75
2023-03-26T15:57:47.413Z,2.55
2023-03-26T16:00:29.695Z,9.68
2023-03-26T16:03:49.128Z,2.25
2023-03-26T16:06:48.808Z,14.52
2023-03-26T16:09:35.654Z,3.03
2023-03-26T16:12:28.846Z,2.80
2023-03-26T16:15:27.938Z,2.15
2023-03-26T16:18:12.870Z,1.70
2023-03-26T16:20:51.261Z,1.55
2023-03-26T16:23:54.179Z,1.55
2023-03-26T16:27:02.556Z,2.10
2023-03-26T16:30:02.290Z,2.42
2023-03-26T16:32:55.801Z,2.75
2023-03-26T16:35:41.249Z,3.08
2023-03-26T16:38:15.448Z,3.00
2023-03-26T16:40:59.298Z,6.95
2023-03-26T16:43:56.777Z,4.28
2023-03-26T16:46:49.007Z,10.85
2023-03-26T16:49:40.272Z,11.80
2023-03-26T16:52:43.521Z,9.05
2023-03-26T16:55:42.936Z,7.00
2023-03-26T16:58:29.023Z,14.70
2023-03-26T17:01:27.917Z,21.75
2023-03-26T17:04:05.975Z,21.88
2023-03-26T17:07:24.825Z,12.13
2023-03-26T17:10:37.284Z,3.00
2023-03-26T17:13:12.833Z,2.40
2023-03-26T17:16:02.666Z,2.92
2023-03-26T17:18:51.732Z,2.50
2023-03-26T17:21:56.332Z,2.65
2023-03-26T17:27:11.742Z,2.15
2023-03-26T17:30:04.550Z,2.17
2023-03-26T17:32:59.680Z,2.17
2023-03-26T17:35:48.006Z,2.00
2023-03-26T17:38:19.036Z,2.13
2023-03-26T17:40:55.957Z,2.40
2023-03-26T17:43:48.092Z,2.50
2023-03-26T17:46:31.282Z,3.33
2023-03-26T17:49:20.256Z,3.90
2023-03-26T17:52:04.689Z,5.10
2023-03-26T17:54:35.344Z,7.07
2023-03-26T17:57:30.443Z,3.00
2023-03-26T18:00:01.114Z,3.70
2023-03-26T18:02:43.255Z,2.70
2023-03-26T18:05:15.460Z,2.22
2023-03-26T18:08:07.650Z,2.03
2023-03-26T18:11:02.098Z,1.90
2023-03-26T18:13:51.867Z,1.95
2023-03-26T18:16:26.950Z,1.92
2023-03-26T18:18:59.651Z,2.17
2023-03-26T18:21:33.539Z,2.17
2023-03-26T18:24:07.350Z,2.03
2023-03-26T18:27:12.627Z,1.98
2023-03-26T18:30:01.984Z,2.00
2023-03-26T18:32:34.282Z,2.17
2023-03-26T18:35:21.048Z,2.70
2023-03-26T18:37:54.234Z,1.95
2023-03-26T18:40:25.300Z,2.10
2023-03-26T18:43:02.051Z,2.40
2023-03-26T18:45:39.123Z,2.60
2023-03-26T18:48:19.985Z,2.28
2023-03-26T18:51:08.917Z,2.10
2023-03-26T18:53:40.787Z,2.40
2023-03-26T18:56:36.468Z,3.38
2023-03-26T18:59:09.172Z,2.88
2023-03-26T19:01:45.440Z,2.30
2023-03-26T19:04:17.138Z,2.70
2023-03-26T19:07:06.485Z,2.22
2023-03-26T19:09:36.615Z,2.75
2023-03-26T19:12:18.161Z,2.30
2023-03-26T19:14:57.648Z,2.45
2023-03-26T19:17:31.612Z,2.15
2023-03-26T19:20:00.952Z,2.78
2023-03-26T19:22:31.437Z,2.35
2023-03-26T19:25:03.803Z,2.60
2023-03-26T19:27:32.471Z,2.63
2023-03-26T19:30:01.920Z,2.30
2023-03-26T19:32:33.508Z,2.53
2023-03-26T19:35:05.856Z,2.63
2023-03-26T19:37:34.292Z,2.67
2023-03-26T19:40:18.332Z,4.25
2023-03-26T19:42:51.530Z,3.63
2023-03-26T19:45:25.013Z,3.47
2023-03-26T19:48:07.448Z,3.63
2023-03-26T19:50:46.782Z,3.70
2023-03-26T19:53:26.306Z,2.80
2023-03-26T19:55:59.674Z,3.40
2023-03-26T19:58:29.230Z,3.13
2023-03-26T20:00:59.978Z,3.25
2023-03-26T20:03:43.200Z,3.35
2023-03-26T20:06:15.000Z,3.15
2023-03-26T20:08:43.572Z,3.45
2023-03-26T20:11:23.629Z,4.20
2023-03-26T20:13:53.778Z,3.97
2023-03-26T20:16:34.172Z,3.78
2023-03-26T20:19:05.632Z,3.75
2023-03-26T20:21:38.765Z,5.00
2023-03-26T20:24:17.898Z,4.78
2023-03-26T20:26:47.881Z,5.30
2023-03-26T20:29:16.548Z,10.27
2023-03-26T20:31:46.956Z,10.93
2023-03-26T20:34:23.215Z,8.85
2023-03-26T20:36:56.829Z,15.07
2023-03-26T20:39:29.351Z,14.27
2023-03-26T20:41:57.396Z,13.57
2023-03-26T20:44:27.207Z,15.52
2023-03-26T20:46:57.129Z,28.73
2023-03-26T20:49:29.990Z,53.88
2023-03-26T20:51:57.880Z,49.60
2023-03-26T20:54:27.618Z,59.60
2023-03-26T20:56:55.299Z,49.65
2023-03-26T20:59:27.180Z,13.50
2023-03-26T21:01:57.560Z,18.02
2023-03-26T21:04:26.582Z,21.35
2023-03-26T21:07:03.634Z,23.55
2023-03-26T21:09:35.684Z,18.45
2023-03-26T21:12:08.422Z,8.35
2023-03-26T21:14:41.862Z,4.80
2023-03-26T21:19:50.654Z,3.78
2023-03-26T21:22:29.668Z,4.38
2023-03-26T21:25:03.247Z,4.18
2023-03-26T21:30:16.769Z,4.43
2023-03-26T21:32:45.717Z,4.18
2023-03-26T21:35:16.552Z,4.20
2023-03-26T21:37:45.941Z,4.03
2023-03-26T21:40:15.098Z,4.43
2023-03-26T21:42:52.050Z,5.40
2023-03-26T21:45:21.983Z,5.75
2023-03-26T21:47:49.723Z,5.63
2023-03-26T21:50:19.610Z,7.40
2023-03-26T21:52:51.148Z,14.52
2023-03-26T21:55:21.792Z,28.67
2023-03-26T21:58:05.126Z,21.02
2023-03-26T22:01:01.709Z,14.60
2023-03-26T22:03:58.272Z,14.93
2023-03-26T22:06:32.337Z,9.48
2023-03-26T22:08:59.995Z,6.13
2023-03-26T22:11:28.782Z,4.50
2023-03-26T22:14:07.273Z,5.03
2023-03-26T22:16:34.888Z,4.10
2023-03-26T22:19:02.331Z,3.63
2023-03-26T22:21:30.025Z,3.40
2023-03-26T22:23:57.407Z,3.80
2023-03-26T22:26:32.268Z,4.00
2023-03-26T22:29:06.190Z,3.45
2023-03-26T22:31:33.555Z,3.60
2023-03-26T22:34:00.833Z,3.53
2023-03-26T22:36:28.306Z,4.25
2023-03-26T22:38:56.983Z,4.20
2023-03-26T22:41:25.060Z,5.13
2023-03-26T22:43:55.335Z,7.95
2023-03-26T22:46:25.000Z,8.95
2023-03-26T22:48:52.274Z,6.18
2023-03-26T22:51:19.905Z,4.80
2023-03-26T22:53:47.197Z,5.80
2023-03-26T22:56:15.763Z,8.13
2023-03-26T22:58:43.149Z,8.05
2023-03-26T23:01:18.218Z,6.65
2023-03-26T23:03:52.044Z,6.55
2023-03-26T23:06:19.278Z,7.30
2023-03-26T23:08:47.012Z,7.65
2023-03-26T23:11:17.282Z,7.32
2023-03-26T23:13:47.977Z,7.80
2023-03-26T23:16:17.826Z,7.30
2023-03-26T23:18:45.432Z,7.60
2023-03-26T23:21:19.497Z,7.75
2023-03-26T23:23:49.440Z,8.40
2023-03-26T23:26:17.006Z,10.10
2023-03-26T23:28:45.514Z,10.60
2023-03-26T23:31:14.307Z,10.45
2023-03-26T23:33:46.579Z,9.85
2023-03-26T23:36:19.702Z,10.00
2023-03-26T23:38:49.341Z,10.80
2023-03-26T23:41:23.371Z,9.60
2023-03-26T23:43:53.878Z,9.73
2023-03-26T23:46:31.104Z,9.65
2023-03-26T23:49:03.988Z,9.20
2023-03-26T23:51:32.528Z,8.20
2023-03-26T23:54:02.675Z,9.48
2023-03-26T23:56:36.455Z,8.35
2023-03-26T23:59:05.181Z,8.93
